sensor_id;sensor_type;location;lat;lon;timestamp;P1;durP1;ratioP1;P2;durP2;ratioP2
41721;SDS011;27407;24.142;-110.310;2024-01-27T00:00:14;31.13;;;3.67;;
41721;SDS011;27407;24.142;-110.310;2024-01-27T00:02:41;18.70;;;3.83;;
41721;SDS011;27407;24.142;-110.310;2024-01-27T00:05:08;21.10;;;3.13;;
41721;SDS011;27407;24.142;-110.310;2024-01-27T00:07:35;16.53;;;2.87;;
41721;SDS011;27407;24.142;-110.310;2024-01-27T00:10:02;24.20;;;3.07;;
41721;SDS011;27407;24.142;-110.310;2024-01-27T00:12:29;29.77;;;3.37;;
41721;SDS011;27407;24.142;-110.310;2024-01-27T00:14:55;11.83;;;2.40;;
41721;SDS011;27407;24.142;-110.310;2024-01-27T00:17:22;19.17;;;2.77;;
41721;SDS011;27407;24.142;-110.310;2024-01-27T00:19:53;22.60;;;2.47;;
41721;SDS011;27407;24.142;-110.310;2024-01-27T00:22:20;20.27;;;2.50;;
41721;SDS011;27407;24.142;-110.310;2024-01-27T00:24:47;19.47;;;2.13;;
41721;SDS011;27407;24.142;-110.310;2024-01-27T00:27:14;15.00;;;2.20;;
41721;SDS011;27407;24.142;-110.310;2024-01-27T00:29:41;11.90;;;2.37;;
41721;SDS011;27407;24.142;-110.310;2024-01-27T00:32:08;33.93;;;4.33;;
41721;SDS011;27407;24.142;-110.310;2024-01-27T00:34:34;23.10;;;2.77;;
41721;SDS011;27407;24.142;-110.310;2024-01-27T00:37:01;19.83;;;2.57;;
41721;SDS011;27407;24.142;-110.310;2024-01-27T00:39:28;19.73;;;2.37;;
41721;SDS011;27407;24.142;-110.310;2024-01-27T00:41:54;23.83;;;3.07;;
41721;SDS011;27407;24.142;-110.310;2024-01-27T00:44:23;22.20;;;2.70;;
41721;SDS011;27407;24.142;-110.310;2024-01-27T00:46:50;10.80;;;2.37;;
41721;SDS011;27407;24.142;-110.310;2024-01-27T00:49:17;21.93;;;3.20;;
41721;SDS011;27407;24.142;-110.310;2024-01-27T00:51:43;16.17;;;2.50;;
41721;SDS011;27407;24.142;-110.310;2024-01-27T00:54:10;15.00;;;2.40;;
41721;SDS011;27407;24.142;-110.310;2024-01-27T00:56:36;27.63;;;2.77;;
41721;SDS011;27407;24.142;-110.310;2024-01-27T00:59:03;18.93;;;2.50;;
41721;SDS011;27407;24.142;-110.310;2024-01-27T01:01:29;25.47;;;4.53;;
41721;SDS011;27407;24.142;-110.310;2024-01-27T01:03:56;12.83;;;1.80;;
41721;SDS011;27407;24.142;-110.310;2024-01-27T01:06:23;22.97;;;3.17;;
41721;SDS011;27407;24.142;-110.310;2024-01-27T01:08:49;20.60;;;2.27;;
41721;SDS011;27407;24.142;-110.310;2024-01-27T01:11:16;17.00;;;3.17;;
41721;SDS011;27407;24.142;-110.310;2024-01-27T01:13:43;29.93;;;3.40;;
41721;SDS011;27407;24.142;-110.310;2024-01-27T01:16:09;22.37;;;2.47;;
41721;SDS011;27407;24.142;-110.310;2024-01-27T01:18:36;20.07;;;2.90;;
41721;SDS011;27407;24.142;-110.310;2024-01-27T01:21:02;13.23;;;2.60;;
41721;SDS011;27407;24.142;-110.310;2024-01-27T01:23:29;23.23;;;2.93;;
41721;SDS011;27407;24.142;-110.310;2024-01-27T01:25:56;13.97;;;2.13;;
41721;SDS011;27407;24.142;-110.310;2024-01-27T01:28:22;27.30;;;3.13;;
41721;SDS011;27407;24.142;-110.310;2024-01-27T01:30:49;32.13;;;2.93;;
41721;SDS011;27407;24.142;-110.310;2024-01-27T01:33:15;23.07;;;2.77;;
41721;SDS011;27407;24.142;-110.310;2024-01-27T01:35:42;11.67;;;2.60;;
41721;SDS011;27407;24.142;-110.310;2024-01-27T01:38:09;13.47;;;2.50;;
41721;SDS011;27407;24.142;-110.310;2024-01-27T01:40:36;17.97;;;2.63;;
41721;SDS011;27407;24.142;-110.310;2024-01-27T01:43:02;21.60;;;2.37;;
41721;SDS011;27407;24.142;-110.310;2024-01-27T01:45:34;15.30;;;2.67;;
41721;SDS011;27407;24.142;-110.310;2024-01-27T01:48:01;18.67;;;2.60;;
41721;SDS011;27407;24.142;-110.310;2024-01-27T01:50:27;20.37;;;3.50;;
41721;SDS011;27407;24.142;-110.310;2024-01-27T01:52:54;14.93;;;2.30;;
41721;SDS011;27407;24.142;-110.310;2024-01-27T01:55:21;21.63;;;2.87;;
41721;SDS011;27407;24.142;-110.310;2024-01-27T01:57:47;21.97;;;2.23;;
41721;SDS011;27407;24.142;-110.310;2024-01-27T02:00:14;20.20;;;3.17;;
41721;SDS011;27407;24.142;-110.310;2024-01-27T02:02:44;15.83;;;3.03;;
41721;SDS011;27407;24.142;-110.310;2024-01-27T02:05:14;22.47;;;3.90;;
41721;SDS011;27407;24.142;-110.310;2024-01-27T02:07:41;19.27;;;2.87;;
41721;SDS011;27407;24.142;-110.310;2024-01-27T02:10:16;22.77;;;3.20;;
41721;SDS011;27407;24.142;-110.310;2024-01-27T02:12:44;17.07;;;2.43;;
41721;SDS011;27407;24.142;-110.310;2024-01-27T02:15:11;17.80;;;2.50;;
41721;SDS011;27407;24.142;-110.310;2024-01-27T02:17:39;18.03;;;2.90;;
41721;SDS011;27407;24.142;-110.310;2024-01-27T02:20:06;23.77;;;3.30;;
41721;SDS011;27407;24.142;-110.310;2024-01-27T02:22:36;17.87;;;2.77;;
41721;SDS011;27407;24.142;-110.310;2024-01-27T02:25:03;21.60;;;2.70;;
41721;SDS011;27407;24.142;-110.310;2024-01-27T02:27:30;20.23;;;2.53;;
41721;SDS011;27407;24.142;-110.310;2024-01-27T02:29:56;23.70;;;3.23;;
41721;SDS011;27407;24.142;-110.310;2024-01-27T02:32:23;19.73;;;2.50;;
41721;SDS011;27407;24.142;-110.310;2024-01-27T02:34:50;12.53;;;2.50;;
41721;SDS011;27407;24.142;-110.310;2024-01-27T02:37:17;11.40;;;2.40;;
41721;SDS011;27407;24.142;-110.310;2024-01-27T02:39:43;17.20;;;2.10;;
41721;SDS011;27407;24.142;-110.310;2024-01-27T02:42:10;20.63;;;2.13;;
41721;SDS011;27407;24.142;-110.310;2024-01-27T02:44:36;20.77;;;2.47;;
41721;SDS011;27407;24.142;-110.310;2024-01-27T02:47:03;14.50;;;2.67;;
41721;SDS011;27407;24.142;-110.310;2024-01-27T02:49:30;15.93;;;2.90;;
41721;SDS011;27407;24.142;-110.310;2024-01-27T02:51:56;20.97;;;2.73;;
41721;SDS011;27407;24.142;-110.310;2024-01-27T02:54:23;17.07;;;1.97;;
41721;SDS011;27407;24.142;-110.310;2024-01-27T02:56:49;21.40;;;2.67;;
41721;SDS011;27407;24.142;-110.310;2024-01-27T02:59:16;16.03;;;3.37;;
41721;SDS011;27407;24.142;-110.310;2024-01-27T03:01:43;14.73;;;2.07;;
41721;SDS011;27407;24.142;-110.310;2024-01-27T03:04:09;12.33;;;2.27;;
41721;SDS011;27407;24.142;-110.310;2024-01-27T03:06:36;27.57;;;2.87;;
41721;SDS011;27407;24.142;-110.310;2024-01-27T03:09:03;16.63;;;2.40;;
41721;SDS011;27407;24.142;-110.310;2024-01-27T03:11:29;14.90;;;2.23;;
41721;SDS011;27407;24.142;-110.310;2024-01-27T03:13:56;12.57;;;3.13;;
41721;SDS011;27407;24.142;-110.310;2024-01-27T03:16:23;14.90;;;2.23;;
41721;SDS011;27407;24.142;-110.310;2024-01-27T03:18:49;19.73;;;2.10;;
41721;SDS011;27407;24.142;-110.310;2024-01-27T03:21:16;14.43;;;2.50;;
41721;SDS011;27407;24.142;-110.310;2024-01-27T03:23:42;18.97;;;2.57;;
41721;SDS011;27407;24.142;-110.310;2024-01-27T03:26:09;14.33;;;2.57;;
41721;SDS011;27407;24.142;-110.310;2024-01-27T03:28:35;14.83;;;2.30;;
41721;SDS011;27407;24.142;-110.310;2024-01-27T03:31:02;20.83;;;2.70;;
41721;SDS011;27407;24.142;-110.310;2024-01-27T03:33:29;20.80;;;2.87;;
41721;SDS011;27407;24.142;-110.310;2024-01-27T03:35:56;17.37;;;3.20;;
41721;SDS011;27407;24.142;-110.310;2024-01-27T03:38:22;18.27;;;2.47;;
41721;SDS011;27407;24.142;-110.310;2024-01-27T03:40:49;17.40;;;2.60;;
41721;SDS011;27407;24.142;-110.310;2024-01-27T03:43:16;16.30;;;2.43;;
41721;SDS011;27407;24.142;-110.310;2024-01-27T03:45:43;16.47;;;3.20;;
41721;SDS011;27407;24.142;-110.310;2024-01-27T03:48:10;10.63;;;1.63;;
41721;SDS011;27407;24.142;-110.310;2024-01-27T03:50:37;13.50;;;1.97;;
41721;SDS011;27407;24.142;-110.310;2024-01-27T03:53:03;29.73;;;2.23;;
41721;SDS011;27407;24.142;-110.310;2024-01-27T03:55:30;14.03;;;2.50;;
41721;SDS011;27407;24.142;-110.310;2024-01-27T03:57:57;23.70;;;2.93;;
41721;SDS011;27407;24.142;-110.310;2024-01-27T04:00:24;31.80;;;3.73;;
41721;SDS011;27407;24.142;-110.310;2024-01-27T04:02:51;18.97;;;2.60;;
41721;SDS011;27407;24.142;-110.310;2024-01-27T04:05:18;13.47;;;2.53;;
41721;SDS011;27407;24.142;-110.310;2024-01-27T04:07:44;18.33;;;2.20;;
41721;SDS011;27407;24.142;-110.310;2024-01-27T04:10:11;17.83;;;2.80;;
41721;SDS011;27407;24.142;-110.310;2024-01-27T04:12:37;16.43;;;2.33;;
41721;SDS011;27407;24.142;-110.310;2024-01-27T04:15:04;19.00;;;2.47;;
41721;SDS011;27407;24.142;-110.310;2024-01-27T04:17:31;13.70;;;2.37;;
41721;SDS011;27407;24.142;-110.310;2024-01-27T04:19:58;21.07;;;3.10;;
41721;SDS011;27407;24.142;-110.310;2024-01-27T04:22:24;18.97;;;2.33;;
41721;SDS011;27407;24.142;-110.310;2024-01-27T04:24:52;14.17;;;3.07;;
41721;SDS011;27407;24.142;-110.310;2024-01-27T04:27:18;10.57;;;2.27;;
41721;SDS011;27407;24.142;-110.310;2024-01-27T04:29:45;11.93;;;2.90;;
41721;SDS011;27407;24.142;-110.310;2024-01-27T04:32:12;19.60;;;2.53;;
41721;SDS011;27407;24.142;-110.310;2024-01-27T04:34:38;21.63;;;3.30;;
41721;SDS011;27407;24.142;-110.310;2024-01-27T04:37:05;14.67;;;2.70;;
41721;SDS011;27407;24.142;-110.310;2024-01-27T04:39:32;9.90;;;2.10;;
41721;SDS011;27407;24.142;-110.310;2024-01-27T04:41:58;15.97;;;2.30;;
41721;SDS011;27407;24.142;-110.310;2024-01-27T04:44:25;14.43;;;2.20;;
41721;SDS011;27407;24.142;-110.310;2024-01-27T04:46:52;16.50;;;2.43;;
41721;SDS011;27407;24.142;-110.310;2024-01-27T04:49:19;11.03;;;3.00;;
41721;SDS011;27407;24.142;-110.310;2024-01-27T04:51:45;15.47;;;2.17;;
41721;SDS011;27407;24.142;-110.310;2024-01-27T04:54:12;9.17;;;1.93;;
41721;SDS011;27407;24.142;-110.310;2024-01-27T04:56:38;16.73;;;3.00;;
41721;SDS011;27407;24.142;-110.310;2024-01-27T04:59:05;8.27;;;2.17;;
41721;SDS011;27407;24.142;-110.310;2024-01-27T05:01:32;18.83;;;3.93;;
41721;SDS011;27407;24.142;-110.310;2024-01-27T05:03:59;13.17;;;1.77;;
41721;SDS011;27407;24.142;-110.310;2024-01-27T05:06:25;18.93;;;3.37;;
41721;SDS011;27407;24.142;-110.310;2024-01-27T05:08:52;16.47;;;2.73;;
41721;SDS011;27407;24.142;-110.310;2024-01-27T05:11:25;18.40;;;2.30;;
41721;SDS011;27407;24.142;-110.310;2024-01-27T05:13:59;11.70;;;1.90;;
41721;SDS011;27407;24.142;-110.310;2024-01-27T05:16:26;16.37;;;2.53;;
41721;SDS011;27407;24.142;-110.310;2024-01-27T05:18:57;14.40;;;3.07;;
41721;SDS011;27407;24.142;-110.310;2024-01-27T05:21:24;18.13;;;2.47;;
41721;SDS011;27407;24.142;-110.310;2024-01-27T05:23:50;16.57;;;3.13;;
41721;SDS011;27407;24.142;-110.310;2024-01-27T05:26:17;13.17;;;2.47;;
41721;SDS011;27407;24.142;-110.310;2024-01-27T05:28:43;23.17;;;3.00;;
41721;SDS011;27407;24.142;-110.310;2024-01-27T05:31:10;15.87;;;2.47;;
41721;SDS011;27407;24.142;-110.310;2024-01-27T05:33:37;15.17;;;3.00;;
41721;SDS011;27407;24.142;-110.310;2024-01-27T05:36:07;10.03;;;2.60;;
41721;SDS011;27407;24.142;-110.310;2024-01-27T05:38:33;20.20;;;3.07;;
41721;SDS011;27407;24.142;-110.310;2024-01-27T05:41:00;11.37;;;2.50;;
41721;SDS011;27407;24.142;-110.310;2024-01-27T05:43:27;20.00;;;2.97;;
41721;SDS011;27407;24.142;-110.310;2024-01-27T05:45:54;15.93;;;2.70;;
41721;SDS011;27407;24.142;-110.310;2024-01-27T05:48:21;14.80;;;2.23;;
41721;SDS011;27407;24.142;-110.310;2024-01-27T05:50:57;14.53;;;2.80;;
41721;SDS011;27407;24.142;-110.310;2024-01-27T05:53:25;11.53;;;2.17;;
41721;SDS011;27407;24.142;-110.310;2024-01-27T05:55:52;15.97;;;2.33;;
41721;SDS011;27407;24.142;-110.310;2024-01-27T05:58:19;11.37;;;2.07;;
41721;SDS011;27407;24.142;-110.310;2024-01-27T06:00:47;18.80;;;1.90;;
41721;SDS011;27407;24.142;-110.310;2024-01-27T06:03:13;10.03;;;1.20;;
41721;SDS011;27407;24.142;-110.310;2024-01-27T06:05:41;18.13;;;2.23;;
41721;SDS011;27407;24.142;-110.310;2024-01-27T06:08:08;11.03;;;1.67;;
41721;SDS011;27407;24.142;-110.310;2024-01-27T06:10:34;10.13;;;2.10;;
41721;SDS011;27407;24.142;-110.310;2024-01-27T06:13:04;15.47;;;2.00;;
41721;SDS011;27407;24.142;-110.310;2024-01-27T06:15:31;8.00;;;2.50;;
41721;SDS011;27407;24.142;-110.310;2024-01-27T06:17:57;12.53;;;2.50;;
41721;SDS011;27407;24.142;-110.310;2024-01-27T06:20:24;8.53;;;1.73;;
41721;SDS011;27407;24.142;-110.310;2024-01-27T06:22:51;15.53;;;2.30;;
41721;SDS011;27407;24.142;-110.310;2024-01-27T06:25:18;7.87;;;1.83;;
41721;SDS011;27407;24.142;-110.310;2024-01-27T06:27:44;10.60;;;2.00;;
41721;SDS011;27407;24.142;-110.310;2024-01-27T06:30:12;11.70;;;1.50;;
41721;SDS011;27407;24.142;-110.310;2024-01-27T06:32:39;13.83;;;2.00;;
41721;SDS011;27407;24.142;-110.310;2024-01-27T06:35:06;15.37;;;2.27;;
41721;SDS011;27407;24.142;-110.310;2024-01-27T06:37:33;7.70;;;1.63;;
41721;SDS011;27407;24.142;-110.310;2024-01-27T06:40:00;14.20;;;1.70;;
41721;SDS011;27407;24.142;-110.310;2024-01-27T06:42:28;12.40;;;1.70;;
41721;SDS011;27407;24.142;-110.310;2024-01-27T06:44:55;12.87;;;1.60;;
41721;SDS011;27407;24.142;-110.310;2024-01-27T06:47:21;9.57;;;1.53;;
41721;SDS011;27407;24.142;-110.310;2024-01-27T06:49:48;14.90;;;1.67;;
41721;SDS011;27407;24.142;-110.310;2024-01-27T06:52:14;15.17;;;2.10;;
41721;SDS011;27407;24.142;-110.310;2024-01-27T06:54:41;9.67;;;1.73;;
41721;SDS011;27407;24.142;-110.310;2024-01-27T06:59:49;11.47;;;1.67;;
41721;SDS011;27407;24.142;-110.310;2024-01-27T07:02:27;6.27;;;1.50;;
41721;SDS011;27407;24.142;-110.310;2024-01-27T07:04:58;11.83;;;1.70;;
41721;SDS011;27407;24.142;-110.310;2024-01-27T07:07:25;10.50;;;1.50;;
41721;SDS011;27407;24.142;-110.310;2024-01-27T07:09:56;11.27;;;1.60;;
41721;SDS011;27407;24.142;-110.310;2024-01-27T07:12:24;7.60;;;1.50;;
41721;SDS011;27407;24.142;-110.310;2024-01-27T07:14:51;22.50;;;2.00;;
41721;SDS011;27407;24.142;-110.310;2024-01-27T07:17:20;6.73;;;1.43;;
41721;SDS011;27407;24.142;-110.310;2024-01-27T07:19:46;8.63;;;1.30;;
41721;SDS011;27407;24.142;-110.310;2024-01-27T07:22:13;9.77;;;1.80;;
41721;SDS011;27407;24.142;-110.310;2024-01-27T07:24:39;12.67;;;2.23;;
41721;SDS011;27407;24.142;-110.310;2024-01-27T07:27:06;8.33;;;1.00;;
41721;SDS011;27407;24.142;-110.310;2024-01-27T07:29:33;7.87;;;1.40;;
41721;SDS011;27407;24.142;-110.310;2024-01-27T07:31:59;15.73;;;1.60;;
41721;SDS011;27407;24.142;-110.310;2024-01-27T07:34:26;11.43;;;2.20;;
41721;SDS011;27407;24.142;-110.310;2024-01-27T07:36:52;6.00;;;1.13;;
41721;SDS011;27407;24.142;-110.310;2024-01-27T07:39:19;7.03;;;1.20;;
41721;SDS011;27407;24.142;-110.310;2024-01-27T07:41:46;9.97;;;1.87;;
41721;SDS011;27407;24.142;-110.310;2024-01-27T07:44:14;5.83;;;1.63;;
41721;SDS011;27407;24.142;-110.310;2024-01-27T07:46:41;6.23;;;1.10;;
41721;SDS011;27407;24.142;-110.310;2024-01-27T07:49:08;9.40;;;1.47;;
41721;SDS011;27407;24.142;-110.310;2024-01-27T07:51:38;9.53;;;1.63;;
41721;SDS011;27407;24.142;-110.310;2024-01-27T07:54:04;9.13;;;1.27;;
41721;SDS011;27407;24.142;-110.310;2024-01-27T07:56:31;18.10;;;1.70;;
41721;SDS011;27407;24.142;-110.310;2024-01-27T07:58:58;9.57;;;1.30;;
41721;SDS011;27407;24.142;-110.310;2024-01-27T08:01:26;8.20;;;1.27;;
41721;SDS011;27407;24.142;-110.310;2024-01-27T08:03:53;8.13;;;1.27;;
41721;SDS011;27407;24.142;-110.310;2024-01-27T08:06:26;8.73;;;2.00;;
41721;SDS011;27407;24.142;-110.310;2024-01-27T08:08:54;5.23;;;1.07;;
41721;SDS011;27407;24.142;-110.310;2024-01-27T08:11:21;8.20;;;1.40;;
41721;SDS011;27407;24.142;-110.310;2024-01-27T08:13:48;9.20;;;1.30;;
41721;SDS011;27407;24.142;-110.310;2024-01-27T08:16:14;7.10;;;1.20;;
41721;SDS011;27407;24.142;-110.310;2024-01-27T08:18:41;6.57;;;1.67;;
41721;SDS011;27407;24.142;-110.310;2024-01-27T08:21:09;9.53;;;1.40;;
41721;SDS011;27407;24.142;-110.310;2024-01-27T08:23:39;10.00;;;1.10;;
41721;SDS011;27407;24.142;-110.310;2024-01-27T08:26:06;13.33;;;1.93;;
41721;SDS011;27407;24.142;-110.310;2024-01-27T08:28:33;13.17;;;1.53;;
41721;SDS011;27407;24.142;-110.310;2024-01-27T08:31:00;6.77;;;1.43;;
41721;SDS011;27407;24.142;-110.310;2024-01-27T08:33:27;7.73;;;1.20;;
41721;SDS011;27407;24.142;-110.310;2024-01-27T08:35:54;8.50;;;1.07;;
41721;SDS011;27407;24.142;-110.310;2024-01-27T08:38:20;8.63;;;1.40;;
41721;SDS011;27407;24.142;-110.310;2024-01-27T08:40:47;41.07;;;3.00;;
41721;SDS011;27407;24.142;-110.310;2024-01-27T08:43:13;4.20;;;0.87;;
41721;SDS011;27407;24.142;-110.310;2024-01-27T08:45:41;8.23;;;1.20;;
41721;SDS011;27407;24.142;-110.310;2024-01-27T08:48:08;8.33;;;1.40;;
41721;SDS011;27407;24.142;-110.310;2024-01-27T08:50:36;3.97;;;1.03;;
41721;SDS011;27407;24.142;-110.310;2024-01-27T08:53:03;7.50;;;1.27;;
41721;SDS011;27407;24.142;-110.310;2024-01-27T08:55:30;4.73;;;0.97;;
41721;SDS011;27407;24.142;-110.310;2024-01-27T08:57:56;12.80;;;1.20;;
41721;SDS011;27407;24.142;-110.310;2024-01-27T09:00:23;8.03;;;1.37;;
41721;SDS011;27407;24.142;-110.310;2024-01-27T09:02:50;5.53;;;1.03;;
41721;SDS011;27407;24.142;-110.310;2024-01-27T09:05:18;12.97;;;2.20;;
41721;SDS011;27407;24.142;-110.310;2024-01-27T09:07:45;9.80;;;1.50;;
41721;SDS011;27407;24.142;-110.310;2024-01-27T09:10:11;10.60;;;1.33;;
41721;SDS011;27407;24.142;-110.310;2024-01-27T09:12:41;11.27;;;1.87;;
41721;SDS011;27407;24.142;-110.310;2024-01-27T09:15:08;4.20;;;1.27;;
41721;SDS011;27407;24.142;-110.310;2024-01-27T09:17:35;8.80;;;1.30;;
41721;SDS011;27407;24.142;-110.310;2024-01-27T09:20:02;24.50;;;1.70;;
41721;SDS011;27407;24.142;-110.310;2024-01-27T09:22:29;13.77;;;1.47;;
41721;SDS011;27407;24.142;-110.310;2024-01-27T09:24:55;7.67;;;1.80;;
41721;SDS011;27407;24.142;-110.310;2024-01-27T09:27:22;16.70;;;1.57;;
41721;SDS011;27407;24.142;-110.310;2024-01-27T09:29:49;13.13;;;1.30;;
41721;SDS011;27407;24.142;-110.310;2024-01-27T09:32:15;9.90;;;1.40;;
41721;SDS011;27407;24.142;-110.310;2024-01-27T09:34:42;11.07;;;1.50;;
41721;SDS011;27407;24.142;-110.310;2024-01-27T09:37:09;8.57;;;1.50;;
41721;SDS011;27407;24.142;-110.310;2024-01-27T09:39:35;4.77;;;1.57;;
41721;SDS011;27407;24.142;-110.310;2024-01-27T09:42:03;6.40;;;1.20;;
41721;SDS011;27407;24.142;-110.310;2024-01-27T09:44:33;11.80;;;1.30;;
41721;SDS011;27407;24.142;-110.310;2024-01-27T09:47:00;7.83;;;1.53;;
41721;SDS011;27407;24.142;-110.310;2024-01-27T09:49:28;5.40;;;1.17;;
41721;SDS011;27407;24.142;-110.310;2024-01-27T09:51:57;5.63;;;1.17;;
41721;SDS011;27407;24.142;-110.310;2024-01-27T09:54:24;12.93;;;1.77;;
41721;SDS011;27407;24.142;-110.310;2024-01-27T09:56:51;5.37;;;1.50;;
41721;SDS011;27407;24.142;-110.310;2024-01-27T09:59:18;8.90;;;1.60;;
41721;SDS011;27407;24.142;-110.310;2024-01-27T10:01:46;7.87;;;1.40;;
41721;SDS011;27407;24.142;-110.310;2024-01-27T10:04:14;9.63;;;1.40;;
41721;SDS011;27407;24.142;-110.310;2024-01-27T10:06:40;14.33;;;1.57;;
41721;SDS011;27407;24.142;-110.310;2024-01-27T10:09:07;6.30;;;1.10;;
41721;SDS011;27407;24.142;-110.310;2024-01-27T10:11:36;5.53;;;1.23;;
41721;SDS011;27407;24.142;-110.310;2024-01-27T10:14:06;10.33;;;1.40;;
41721;SDS011;27407;24.142;-110.310;2024-01-27T10:16:40;19.37;;;2.47;;
41721;SDS011;27407;24.142;-110.310;2024-01-27T10:19:11;7.73;;;1.83;;
41721;SDS011;27407;24.142;-110.310;2024-01-27T10:21:44;10.93;;;1.47;;
41721;SDS011;27407;24.142;-110.310;2024-01-27T10:24:11;12.63;;;1.80;;
41721;SDS011;27407;24.142;-110.310;2024-01-27T10:26:38;10.43;;;1.70;;
41721;SDS011;27407;24.142;-110.310;2024-01-27T10:29:05;8.47;;;1.53;;
41721;SDS011;27407;24.142;-110.310;2024-01-27T10:31:35;10.27;;;1.77;;
41721;SDS011;27407;24.142;-110.310;2024-01-27T10:34:02;6.33;;;1.50;;
41721;SDS011;27407;24.142;-110.310;2024-01-27T10:36:38;8.83;;;1.43;;
41721;SDS011;27407;24.142;-110.310;2024-01-27T10:39:21;13.73;;;1.43;;
41721;SDS011;27407;24.142;-110.310;2024-01-27T10:41:49;7.10;;;1.40;;
41721;SDS011;27407;24.142;-110.310;2024-01-27T10:44:17;7.57;;;1.30;;
41721;SDS011;27407;24.142;-110.310;2024-01-27T10:46:45;4.13;;;1.40;;
41721;SDS011;27407;24.142;-110.310;2024-01-27T10:49:14;7.63;;;1.33;;
41721;SDS011;27407;24.142;-110.310;2024-01-27T10:51:44;11.40;;;1.50;;
41721;SDS011;27407;24.142;-110.310;2024-01-27T10:54:24;17.03;;;1.50;;
41721;SDS011;27407;24.142;-110.310;2024-01-27T10:56:58;10.03;;;1.80;;
41721;SDS011;27407;24.142;-110.310;2024-01-27T10:59:27;9.33;;;1.40;;
41721;SDS011;27407;24.142;-110.310;2024-01-27T11:01:56;6.33;;;1.13;;
41721;SDS011;27407;24.142;-110.310;2024-01-27T11:04:23;7.27;;;1.50;;
41721;SDS011;27407;24.142;-110.310;2024-01-27T11:06:51;7.03;;;1.17;;
41721;SDS011;27407;24.142;-110.310;2024-01-27T11:09:19;5.53;;;1.23;;
41721;SDS011;27407;24.142;-110.310;2024-01-27T11:11:47;13.20;;;1.30;;
41721;SDS011;27407;24.142;-110.310;2024-01-27T11:14:14;7.70;;;1.70;;
41721;SDS011;27407;24.142;-110.310;2024-01-27T11:16:41;4.53;;;1.37;;
41721;SDS011;27407;24.142;-110.310;2024-01-27T11:19:11;5.20;;;1.17;;
41721;SDS011;27407;24.142;-110.310;2024-01-27T11:21:38;6.30;;;1.20;;
41721;SDS011;27407;24.142;-110.310;2024-01-27T11:24:17;8.63;;;1.60;;
41721;SDS011;27407;24.142;-110.310;2024-01-27T11:26:44;8.70;;;1.30;;
41721;SDS011;27407;24.142;-110.310;2024-01-27T11:29:11;7.97;;;1.40;;
41721;SDS011;27407;24.142;-110.310;2024-01-27T11:31:47;10.63;;;2.17;;
41721;SDS011;27407;24.142;-110.310;2024-01-27T11:34:14;8.37;;;1.17;;
41721;SDS011;27407;24.142;-110.310;2024-01-27T11:36:43;14.03;;;1.60;;
41721;SDS011;27407;24.142;-110.310;2024-01-27T11:39:26;6.97;;;1.27;;
41721;SDS011;27407;24.142;-110.310;2024-01-27T11:41:53;11.30;;;1.40;;
41721;SDS011;27407;24.142;-110.310;2024-01-27T11:44:29;8.57;;;2.00;;
41721;SDS011;27407;24.142;-110.310;2024-01-27T11:46:56;8.50;;;1.30;;
41721;SDS011;27407;24.142;-110.310;2024-01-27T11:49:24;6.50;;;1.33;;
41721;SDS011;27407;24.142;-110.310;2024-01-27T11:51:51;11.40;;;1.50;;
41721;SDS011;27407;24.142;-110.310;2024-01-27T11:54:17;8.90;;;1.20;;
41721;SDS011;27407;24.142;-110.310;2024-01-27T11:56:44;7.83;;;1.17;;
41721;SDS011;27407;24.142;-110.310;2024-01-27T11:59:11;3.53;;;1.10;;
41721;SDS011;27407;24.142;-110.310;2024-01-27T12:01:38;10.43;;;1.87;;
41721;SDS011;27407;24.142;-110.310;2024-01-27T12:04:05;7.33;;;1.27;;
41721;SDS011;27407;24.142;-110.310;2024-01-27T12:06:31;9.10;;;1.40;;
41721;SDS011;27407;24.142;-110.310;2024-01-27T12:08:58;8.17;;;1.53;;
41721;SDS011;27407;24.142;-110.310;2024-01-27T12:11:25;5.93;;;1.20;;
41721;SDS011;27407;24.142;-110.310;2024-01-27T12:13:52;8.43;;;1.50;;
41721;SDS011;27407;24.142;-110.310;2024-01-27T12:16:22;4.07;;;1.00;;
41721;SDS011;27407;24.142;-110.310;2024-01-27T12:18:52;9.63;;;1.23;;
41721;SDS011;27407;24.142;-110.310;2024-01-27T12:21:19;10.17;;;1.47;;
41721;SDS011;27407;24.142;-110.310;2024-01-27T12:23:53;7.60;;;1.20;;
41721;SDS011;27407;24.142;-110.310;2024-01-27T12:26:21;12.13;;;1.63;;
41721;SDS011;27407;24.142;-110.310;2024-01-27T12:28:48;8.00;;;1.30;;
41721;SDS011;27407;24.142;-110.310;2024-01-27T12:31:15;7.13;;;1.27;;
41721;SDS011;27407;24.142;-110.310;2024-01-27T12:33:49;5.43;;;1.43;;
41721;SDS011;27407;24.142;-110.310;2024-01-27T12:36:18;10.23;;;1.23;;
41721;SDS011;27407;24.142;-110.310;2024-01-27T12:39:08;6.40;;;1.10;;
41721;SDS011;27407;24.142;-110.310;2024-01-27T12:41:34;9.00;;;1.50;;
41721;SDS011;27407;24.142;-110.310;2024-01-27T12:44:01;7.97;;;1.33;;
41721;SDS011;27407;24.142;-110.310;2024-01-27T12:46:29;10.33;;;1.60;;
41721;SDS011;27407;24.142;-110.310;2024-01-27T12:48:57;13.47;;;1.60;;
41721;SDS011;27407;24.142;-110.310;2024-01-27T12:51:23;21.23;;;1.87;;
41721;SDS011;27407;24.142;-110.310;2024-01-27T12:53:50;14.60;;;1.73;;
41721;SDS011;27407;24.142;-110.310;2024-01-27T12:56:16;16.10;;;2.67;;
41721;SDS011;27407;24.142;-110.310;2024-01-27T12:58:43;7.77;;;2.20;;
41721;SDS011;27407;24.142;-110.310;2024-01-27T13:01:10;9.33;;;1.67;;
41721;SDS011;27407;24.142;-110.310;2024-01-27T13:03:36;13.63;;;2.33;;
41721;SDS011;27407;24.142;-110.310;2024-01-27T13:06:03;4.53;;;1.30;;
41721;SDS011;27407;24.142;-110.310;2024-01-27T13:08:30;11.07;;;2.00;;
41721;SDS011;27407;24.142;-110.310;2024-01-27T13:10:56;13.43;;;1.87;;
41721;SDS011;27407;24.142;-110.310;2024-01-27T13:13:23;9.50;;;1.60;;
41721;SDS011;27407;24.142;-110.310;2024-01-27T13:15:50;12.67;;;2.30;;
41721;SDS011;27407;24.142;-110.310;2024-01-27T13:18:16;12.90;;;1.67;;
41721;SDS011;27407;24.142;-110.310;2024-01-27T13:20:43;13.33;;;1.83;;
41721;SDS011;27407;24.142;-110.310;2024-01-27T13:23:09;9.97;;;1.77;;
41721;SDS011;27407;24.142;-110.310;2024-01-27T13:25:36;12.87;;;1.70;;
41721;SDS011;27407;24.142;-110.310;2024-01-27T13:28:03;15.57;;;1.90;;
41721;SDS011;27407;24.142;-110.310;2024-01-27T13:30:32;13.40;;;2.37;;
41721;SDS011;27407;24.142;-110.310;2024-01-27T13:33:00;17.53;;;2.40;;
41721;SDS011;27407;24.142;-110.310;2024-01-27T13:35:26;20.23;;;2.50;;
41721;SDS011;27407;24.142;-110.310;2024-01-27T13:37:53;9.37;;;1.67;;
41721;SDS011;27407;24.142;-110.310;2024-01-27T13:40:19;12.23;;;1.93;;
41721;SDS011;27407;24.142;-110.310;2024-01-27T13:42:46;9.97;;;1.87;;
41721;SDS011;27407;24.142;-110.310;2024-01-27T13:45:13;13.90;;;1.73;;
41721;SDS011;27407;24.142;-110.310;2024-01-27T13:47:39;16.40;;;2.00;;
41721;SDS011;27407;24.142;-110.310;2024-01-27T13:50:06;12.37;;;2.03;;
41721;SDS011;27407;24.142;-110.310;2024-01-27T13:52:34;15.40;;;2.20;;
41721;SDS011;27407;24.142;-110.310;2024-01-27T13:55:01;18.23;;;2.27;;
41721;SDS011;27407;24.142;-110.310;2024-01-27T13:57:27;15.20;;;2.60;;
41721;SDS011;27407;24.142;-110.310;2024-01-27T13:59:54;12.07;;;2.30;;
41721;SDS011;27407;24.142;-110.310;2024-01-27T14:02:21;10.77;;;1.83;;
41721;SDS011;27407;24.142;-110.310;2024-01-27T14:04:49;16.80;;;2.70;;